createdAt,value
2019-05-19T00:00:31.500Z,12.80
2019-05-19T00:01:31.482Z,12.82
2019-05-19T00:02:31.468Z,12.87
2019-05-19T00:03:31.503Z,12.82
2019-05-19T00:04:31.477Z,12.86
2019-05-19T00:05:31.432Z,12.79
2019-05-19T00:06:31.454Z,12.79
2019-05-19T00:07:31.433Z,12.76
2019-05-19T00:08:31.429Z,12.79
2019-05-19T00:09:31.402Z,12.75
2019-05-19T00:10:31.416Z,12.68
2019-05-19T00:11:31.372Z,12.62
2019-05-19T00:12:31.359Z,12.72
2019-05-19T00:13:31.343Z,12.64
2019-05-19T00:14:31.344Z,12.62
2019-05-19T00:15:31.324Z,12.62
2019-05-19T00:16:31.319Z,12.57
2019-05-19T00:17:31.312Z,12.57
2019-05-19T00:18:31.288Z,12.58
2019-05-19T00:19:31.289Z,12.61
2019-05-19T00:20:31.275Z,12.60
2019-05-19T00:21:31.292Z,12.49
2019-05-19T00:22:31.257Z,12.53
2019-05-19T00:23:31.244Z,12.58
2019-05-19T00:24:31.235Z,12.54
2019-05-19T00:25:31.229Z,12.61
2019-05-19T00:26:31.215Z,12.54
2019-05-19T00:27:31.207Z,12.49
2019-05-19T00:28:31.191Z,12.46
2019-05-19T00:29:31.199Z,12.49
2019-05-19T00:30:31.160Z,12.47
2019-05-19T00:31:31.149Z,12.46
2019-05-19T00:32:31.149Z,12.49
2019-05-19T00:33:31.127Z,12.54
2019-05-19T00:34:31.123Z,12.49
2019-05-19T00:35:31.120Z,12.50
2019-05-19T00:36:31.112Z,12.49
2019-05-19T00:37:31.135Z,12.46
2019-05-19T00:38:31.072Z,12.50
2019-05-19T00:39:31.066Z,12.54
2019-05-19T00:40:31.068Z,12.49
2019-05-19T00:41:31.043Z,12.47
2019-05-19T00:42:31.027Z,12.45
2019-05-19T00:43:31.043Z,12.45
2019-05-19T00:44:31.004Z,12.36
2019-05-19T00:45:31.013Z,12.40
2019-05-19T00:46:31.003Z,12.36
2019-05-19T00:47:30.968Z,12.39
2019-05-19T00:48:30.960Z,12.40
2019-05-19T00:49:40.991Z,12.42
2019-05-19T00:50:31.935Z,12.42
2019-05-19T00:51:30.929Z,12.32
2019-05-19T00:52:30.928Z,12.37
2019-05-19T00:53:30.932Z,12.39
2019-05-19T00:54:30.900Z,12.32
2019-05-19T00:55:30.880Z,12.42
2019-05-19T00:56:30.871Z,12.39
2019-05-19T00:57:30.881Z,12.36
2019-05-19T00:58:30.864Z,12.37
2019-05-19T00:59:30.835Z,12.40
2019-05-19T01:00:30.827Z,12.35
2019-05-19T01:01:30.815Z,12.42
2019-05-19T01:02:30.803Z,12.37
2019-05-19T01:03:30.812Z,12.36
2019-05-19T01:04:30.783Z,12.35
2019-05-19T01:05:30.767Z,12.39
2019-05-19T01:06:30.763Z,12.39
2019-05-19T01:07:30.751Z,12.42
2019-05-19T01:08:30.774Z,12.32
2019-05-19T01:09:30.747Z,12.28
2019-05-19T01:10:30.717Z,12.25
2019-05-19T01:11:30.707Z,12.27
2019-05-19T01:12:30.696Z,12.31
2019-05-19T01:13:30.683Z,12.28
2019-05-19T01:14:30.672Z,12.27
2019-05-19T01:15:30.720Z,12.22
2019-05-19T01:16:30.656Z,12.27
2019-05-19T01:17:30.644Z,12.27
2019-05-19T01:18:30.631Z,12.21
2019-05-19T01:19:30.623Z,12.22
2019-05-19T01:20:30.605Z,12.27
2019-05-19T01:21:30.640Z,12.22
2019-05-19T01:22:30.583Z,12.18
2019-05-19T01:23:30.595Z,12.25
2019-05-19T01:24:30.571Z,12.25
2019-05-19T01:25:30.551Z,12.28
2019-05-19T01:26:30.575Z,12.29
2019-05-19T01:27:30.531Z,12.22
2019-05-19T01:28:30.580Z,12.21
2019-05-19T01:29:30.507Z,12.28
2019-05-19T01:30:30.545Z,12.25
2019-05-19T01:31:30.487Z,12.22
2019-05-19T01:32:30.516Z,12.28
2019-05-19T01:33:30.491Z,12.25
2019-05-19T01:34:30.580Z,12.24
2019-05-19T01:35:30.447Z,12.24
2019-05-19T01:36:30.541Z,12.25
2019-05-19T01:37:30.442Z,12.15
2019-05-19T01:38:30.422Z,12.21
2019-05-19T01:39:30.475Z,12.13
2019-05-19T01:40:30.415Z,12.12
2019-05-19T01:41:30.406Z,12.20
2019-05-19T01:42:30.361Z,12.10
2019-05-19T01:43:30.352Z,12.03
2019-05-19T01:44:30.340Z,12.13
2019-05-19T01:45:30.339Z,12.10
2019-05-19T01:46:30.359Z,12.07
2019-05-19T01:47:30.308Z,12.03
2019-05-19T01:48:30.296Z,12.07
2019-05-19T01:49:30.321Z,12.09
2019-05-19T01:50:30.311Z,12.00
2019-05-19T01:51:30.267Z,12.00
2019-05-19T01:52:30.261Z,12.07
2019-05-19T01:53:30.248Z,12.03
2019-05-19T01:54:30.243Z,12.03
2019-05-19T01:55:30.233Z,11.97
2019-05-19T01:56:30.207Z,11.94
2019-05-19T01:57:30.195Z,11.95
2019-05-19T01:58:30.209Z,11.97
2019-05-19T01:59:30.178Z,11.86
2019-05-19T02:00:30.236Z,11.88
2019-05-19T02:01:30.176Z,11.84
2019-05-19T02:02:30.137Z,11.83
2019-05-19T02:03:30.124Z,11.81
2019-05-19T02:04:30.126Z,11.78
2019-05-19T02:05:30.120Z,11.83
2019-05-19T02:06:30.117Z,11.83
2019-05-19T02:07:30.095Z,11.84
2019-05-19T02:08:30.089Z,11.78
2019-05-19T02:09:30.072Z,11.78
2019-05-19T02:10:30.061Z,11.87
2019-05-19T02:11:30.042Z,11.78
2019-05-19T02:12:30.060Z,11.81
2019-05-19T02:13:30.035Z,11.80
2019-05-19T02:14:30.011Z,11.80
2019-05-19T02:15:30.011Z,11.72
2019-05-19T02:16:30.023Z,11.72
2019-05-19T02:17:29.973Z,11.75
2019-05-19T02:18:29.965Z,11.69
2019-05-19T02:19:29.955Z,11.68
2019-05-19T02:20:33.181Z,11.69
2019-05-19T02:21:29.948Z,11.62
2019-05-19T02:22:29.913Z,11.60
2019-05-19T02:23:29.923Z,11.63
2019-05-19T02:24:29.892Z,11.70
2019-05-19T02:25:29.895Z,11.66
2019-05-19T02:26:29.887Z,11.60
2019-05-19T02:27:29.869Z,11.63
2019-05-19T02:28:29.851Z,11.51
2019-05-19T02:29:29.855Z,11.68
2019-05-19T02:30:29.840Z,11.69
2019-05-19T02:31:29.843Z,11.51
2019-05-19T02:32:29.839Z,11.55
2019-05-19T02:33:29.815Z,11.51
2019-05-19T02:34:29.787Z,11.60
2019-05-19T02:35:29.772Z,11.55
2019-05-19T02:36:29.767Z,11.66
2019-05-19T02:37:29.753Z,11.66
2019-05-19T02:38:29.765Z,11.57
2019-05-19T02:39:29.741Z,11.70
2019-05-19T02:40:29.771Z,11.52
2019-05-19T02:41:29.713Z,11.60
2019-05-19T02:42:29.702Z,11.52
2019-05-19T02:43:29.692Z,11.54
2019-05-19T02:44:29.684Z,11.47
2019-05-19T02:45:29.676Z,11.55
2019-05-19T02:46:29.657Z,11.51
2019-05-19T02:47:29.646Z,11.54
2019-05-19T02:48:29.636Z,11.50
2019-05-19T02:49:29.653Z,11.51
2019-05-19T02:50:29.617Z,11.44
2019-05-19T02:51:29.593Z,11.52
2019-05-19T02:52:29.590Z,11.51
2019-05-19T02:53:29.569Z,11.50
2019-05-19T02:54:29.596Z,11.54
2019-05-19T02:55:29.565Z,11.52
2019-05-19T02:56:29.557Z,11.52
2019-05-19T02:57:29.527Z,11.50
2019-05-19T02:58:29.520Z,11.47
2019-05-19T02:59:29.519Z,11.57
2019-05-19T03:00:29.525Z,11.44
2019-05-19T03:01:29.482Z,11.45
2019-05-19T03:02:29.504Z,11.47
2019-05-19T03:03:29.479Z,11.37
2019-05-19T03:04:29.476Z,11.35
2019-05-19T03:05:29.459Z,11.35
2019-05-19T03:06:29.431Z,11.40
2019-05-19T03:07:29.443Z,11.33
2019-05-19T03:08:29.417Z,11.33
2019-05-19T03:09:29.403Z,11.30
2019-05-19T03:10:29.378Z,11.26
2019-05-19T03:11:29.394Z,11.22
2019-05-19T03:12:29.369Z,11.26
2019-05-19T03:13:29.351Z,11.22
2019-05-19T03:14:29.360Z,11.19
2019-05-19T03:15:29.332Z,11.11
2019-05-19T03:16:29.343Z,11.14
2019-05-19T03:17:29.307Z,11.07
2019-05-19T03:18:29.323Z,11.05
2019-05-19T03:19:29.299Z,11.07
2019-05-19T03:20:29.269Z,11.10
2019-05-19T03:21:29.277Z,11.10
2019-05-19T03:22:29.283Z,11.08
2019-05-19T03:23:29.247Z,10.97
2019-05-19T03:24:29.226Z,11.05
2019-05-19T03:25:29.217Z,11.00
2019-05-19T03:26:29.224Z,11.02
2019-05-19T03:27:29.208Z,11.04
2019-05-19T03:28:29.212Z,10.93
2019-05-19T03:29:29.173Z,10.96
2019-05-19T03:30:29.177Z,11.04
2019-05-19T03:31:29.178Z,10.92
2019-05-19T03:32:29.149Z,10.97
2019-05-19T03:33:29.130Z,10.94
2019-05-19T03:34:29.364Z,11.00
2019-05-19T03:35:29.132Z,10.97
2019-05-19T03:36:29.096Z,11.05
2019-05-19T03:37:29.141Z,11.07
2019-05-19T03:38:29.088Z,11.02
2019-05-19T03:39:29.087Z,10.97
2019-05-19T03:40:29.048Z,10.99
2019-05-19T03:41:29.046Z,11.00
2019-05-19T03:42:29.035Z,10.97
2019-05-19T03:43:29.018Z,11.00
2019-05-19T03:44:29.014Z,11.02
2019-05-19T03:45:29.008Z,11.02
2019-05-19T03:46:28.983Z,10.93
2019-05-19T03:47:28.967Z,10.97
2019-05-19T03:48:28.963Z,10.97
2019-05-19T03:49:28.955Z,11.00
2019-05-19T03:50:29.026Z,10.93
2019-05-19T03:51:31.376Z,10.94
2019-05-19T03:52:28.927Z,10.99
2019-05-19T03:53:28.909Z,10.97
2019-05-19T03:54:28.892Z,10.92
2019-05-19T03:55:28.927Z,10.96
2019-05-19T03:56:28.881Z,10.97
2019-05-19T03:57:28.871Z,11.04
2019-05-19T03:58:28.875Z,11.00
2019-05-19T03:59:28.828Z,11.05
2019-05-19T04:00:28.830Z,11.04
2019-05-19T04:01:28.848Z,11.02
2019-05-19T04:02:28.824Z,10.97
2019-05-19T04:03:28.794Z,11.02
2019-05-19T04:04:28.778Z,10.94
2019-05-19T04:05:28.773Z,11.00
2019-05-19T04:06:28.773Z,11.08
2019-05-19T04:07:28.768Z,11.04
2019-05-19T04:08:28.732Z,11.08
2019-05-19T04:09:28.730Z,11.02
2019-05-19T04:10:28.711Z,11.02
2019-05-19T04:11:28.703Z,11.02
2019-05-19T04:12:28.702Z,11.04
2019-05-19T04:13:28.692Z,11.02
2019-05-19T04:14:28.700Z,10.97
2019-05-19T04:15:28.659Z,10.99
2019-05-19T04:16:28.665Z,11.02
2019-05-19T04:17:28.635Z,11.02
2019-05-19T04:18:28.639Z,11.00
2019-05-19T04:19:28.608Z,11.00
2019-05-19T04:20:28.625Z,11.07
2019-05-19T04:21:28.597Z,11.10
2019-05-19T04:22:28.579Z,11.00
2019-05-19T04:23:28.565Z,11.04
2019-05-19T04:24:28.596Z,11.11
2019-05-19T04:25:28.548Z,11.15
2019-05-19T04:26:28.547Z,11.05
2019-05-19T04:27:28.521Z,11.10
2019-05-19T04:28:28.507Z,11.05
2019-05-19T04:29:28.504Z,11.02
2019-05-19T04:30:28.525Z,11.08
2019-05-19T04:31:28.484Z,11.12
2019-05-19T04:32:28.487Z,11.12
2019-05-19T04:33:28.464Z,11.10
2019-05-19T04:34:28.457Z,11.12
2019-05-19T04:35:28.436Z,11.02
2019-05-19T04:36:28.434Z,11.11
2019-05-19T04:37:28.436Z,11.17
2019-05-19T04:38:28.392Z,11.15
2019-05-19T04:39:28.403Z,11.17
2019-05-19T04:40:28.409Z,11.18
2019-05-19T04:41:28.375Z,11.14
2019-05-19T04:42:28.355Z,11.22
2019-05-19T04:43:28.340Z,11.15
2019-05-19T04:44:28.328Z,11.23
2019-05-19T04:45:28.322Z,11.25
2019-05-19T04:46:28.360Z,11.32
2019-05-19T04:47:28.294Z,11.30
2019-05-19T04:48:28.291Z,11.32
2019-05-19T04:49:28.284Z,11.35
2019-05-19T04:50:28.259Z,11.41
2019-05-19T04:51:28.271Z,11.37
2019-05-19T04:52:28.259Z,11.44
2019-05-19T04:53:28.259Z,11.45
2019-05-19T04:54:28.233Z,11.48
2019-05-19T04:55:28.235Z,11.47
2019-05-19T04:56:28.198Z,11.51
2019-05-19T04:57:28.197Z,11.59
2019-05-19T04:58:28.211Z,11.60
2019-05-19T04:59:28.164Z,11.60
2019-05-19T05:00:28.154Z,11.62
2019-05-19T05:01:28.164Z,11.57
2019-05-19T05:02:28.143Z,11.72
2019-05-19T05:03:28.111Z,11.65
2019-05-19T05:04:29.447Z,11.75
2019-05-19T05:05:28.100Z,11.75
2019-05-19T05:06:28.080Z,11.73
2019-05-19T05:07:28.087Z,11.81
2019-05-19T05:08:30.623Z,11.90
2019-05-19T05:09:28.057Z,11.84
2019-05-19T05:10:28.073Z,11.97
2019-05-19T05:11:28.030Z,11.97
2019-05-19T05:12:28.019Z,11.97
2019-05-19T05:13:28.031Z,12.06
2019-05-19T05:14:28.003Z,12.07
2019-05-19T05:15:27.982Z,12.18
2019-05-19T05:16:27.981Z,12.20
2019-05-19T05:17:27.963Z,12.17
2019-05-19T05:18:27.952Z,12.29
2019-05-19T05:19:27.957Z,12.21
2019-05-19T05:20:27.932Z,12.25
2019-05-19T05:21:27.931Z,12.35
2019-05-19T05:22:27.913Z,12.37
2019-05-19T05:23:27.951Z,12.40
2019-05-19T05:24:28.677Z,12.37
2019-05-19T05:25:27.871Z,12.45
2019-05-19T05:26:27.859Z,12.49
2019-05-19T05:27:27.851Z,12.53
2019-05-19T05:28:27.847Z,12.53
2019-05-19T05:29:27.851Z,12.54
2019-05-19T05:30:27.843Z,12.55
2019-05-19T05:31:27.811Z,12.65
2019-05-19T05:32:27.811Z,12.65
2019-05-19T05:33:27.782Z,12.75
2019-05-19T05:34:27.773Z,12.79
2019-05-19T05:35:27.783Z,12.80
2019-05-19T05:36:27.984Z,12.86
2019-05-19T05:37:27.751Z,12.82
2019-05-19T05:38:27.735Z,12.87
2019-05-19T05:39:27.733Z,12.91
2019-05-19T05:40:27.719Z,12.98
2019-05-19T05:41:27.715Z,12.97
2019-05-19T05:42:27.679Z,13.05
2019-05-19T05:43:27.700Z,13.00
2019-05-19T05:44:27.661Z,13.05
2019-05-19T05:45:27.649Z,13.18
2019-05-19T05:46:27.643Z,13.13
2019-05-19T05:47:27.618Z,13.19
2019-05-19T05:48:27.615Z,13.23
2019-05-19T05:49:27.599Z,13.31
2019-05-19T05:50:27.591Z,13.18
2019-05-19T05:51:27.599Z,13.25
2019-05-19T05:52:38.167Z,13.23
2019-05-19T05:53:28.558Z,13.27
2019-05-19T05:54:27.565Z,13.28
2019-05-19T05:55:27.531Z,13.33
2019-05-19T05:56:27.523Z,13.35
2019-05-19T05:57:27.527Z,13.50
2019-05-19T05:58:27.503Z,13.41
2019-05-19T05:59:27.499Z,13.41
2019-05-19T06:00:27.493Z,13.46
2019-05-19T06:01:27.484Z,13.42
2019-05-19T06:02:27.491Z,13.52
2019-05-19T06:03:27.497Z,13.39
2019-05-19T06:04:27.439Z,13.54
2019-05-19T06:05:27.437Z,13.56
2019-05-19T06:06:27.431Z,13.59
2019-05-19T06:07:27.402Z,13.67
2019-05-19T06:08:27.415Z,13.67
2019-05-19T06:09:27.394Z,13.67
2019-05-19T06:10:27.366Z,13.70
2019-05-19T06:11:27.371Z,13.70
2019-05-19T06:12:27.345Z,13.77
2019-05-19T06:13:27.335Z,13.78
2019-05-19T06:14:27.343Z,13.81
2019-05-19T06:15:27.310Z,13.81
2019-05-19T06:16:27.339Z,13.96
2019-05-19T06:17:27.291Z,13.87
2019-05-19T06:18:27.321Z,13.85
2019-05-19T06:19:27.266Z,13.83
2019-05-19T06:20:27.254Z,13.97
2019-05-19T06:21:27.248Z,13.99
2019-05-19T06:22:27.231Z,14.05
2019-05-19T06:23:27.247Z,14.04
2019-05-19T06:24:27.227Z,14.10
2019-05-19T06:25:27.405Z,14.14
2019-05-19T06:26:27.187Z,14.17
2019-05-19T06:27:27.191Z,14.17
2019-05-19T06:28:27.160Z,14.25
2019-05-19T06:29:27.167Z,14.30
2019-05-19T06:30:27.155Z,14.40
2019-05-19T06:31:27.195Z,14.47
2019-05-19T06:32:27.119Z,14.50
2019-05-19T06:33:27.112Z,14.45
2019-05-19T06:34:27.127Z,14.58
2019-05-19T06:35:27.101Z,14.63
2019-05-19T06:36:27.079Z,14.58
2019-05-19T06:37:27.090Z,14.63
2019-05-19T06:38:27.094Z,14.79
2019-05-19T06:39:27.044Z,14.88
2019-05-19T06:40:27.051Z,14.88
2019-05-19T06:41:27.022Z,14.99
2019-05-19T06:42:27.035Z,15.09
2019-05-19T06:43:27.005Z,15.15
2019-05-19T06:44:26.986Z,15.18
2019-05-19T06:45:27.036Z,15.24
2019-05-19T06:46:26.975Z,15.21
2019-05-19T06:47:26.984Z,15.28
2019-05-19T06:48:26.942Z,15.37
2019-05-19T06:49:26.930Z,15.39
2019-05-19T06:50:26.919Z,15.49
2019-05-19T06:51:26.906Z,15.47
2019-05-19T06:52:26.927Z,15.49
2019-05-19T06:53:26.886Z,15.59
2019-05-19T06:54:26.899Z,15.62
2019-05-19T06:55:26.946Z,15.68
2019-05-19T06:56:26.859Z,15.72
2019-05-19T06:57:26.844Z,15.70
2019-05-19T06:58:26.854Z,15.79
2019-05-19T06:59:26.814Z,15.79
2019-05-19T07:00:26.827Z,15.79
2019-05-19T07:01:26.798Z,15.91
2019-05-19T07:02:26.783Z,15.90
2019-05-19T07:03:26.774Z,15.98
2019-05-19T07:04:26.765Z,15.98
2019-05-19T07:05:26.753Z,15.98
2019-05-19T07:06:26.751Z,15.94
2019-05-19T07:07:26.743Z,16.00
2019-05-19T07:08:26.716Z,16.15
2019-05-19T07:09:26.800Z,16.17
2019-05-19T07:10:26.694Z,16.17
2019-05-19T07:11:26.684Z,16.28
2019-05-19T07:12:26.682Z,16.31
2019-05-19T07:13:26.696Z,16.31
2019-05-19T07:14:26.678Z,16.51
2019-05-19T07:15:26.639Z,16.51
2019-05-19T07:16:26.629Z,16.64
2019-05-19T07:17:26.630Z,16.51
2019-05-19T07:18:26.615Z,16.66
2019-05-19T07:19:26.596Z,16.66
2019-05-19T07:20:26.583Z,16.76
2019-05-19T07:21:26.578Z,16.86
2019-05-19T07:22:26.554Z,16.87
2019-05-19T07:23:28.604Z,16.93
2019-05-19T07:24:26.539Z,16.94
2019-05-19T07:25:26.548Z,17.08
2019-05-19T07:26:26.516Z,17.12
2019-05-19T07:27:26.523Z,17.09
2019-05-19T07:28:26.507Z,17.23
2019-05-19T07:29:26.482Z,17.24
2019-05-19T07:30:26.490Z,17.33
2019-05-19T07:31:26.463Z,17.41
2019-05-19T07:32:26.451Z,17.46
2019-05-19T07:33:26.450Z,17.48
2019-05-19T07:34:26.431Z,17.51
2019-05-19T07:35:26.419Z,17.46
2019-05-19T07:36:26.418Z,17.71
2019-05-19T07:37:26.395Z,17.71
2019-05-19T07:38:26.384Z,17.72
2019-05-19T07:39:26.386Z,17.79
2019-05-19T07:40:26.359Z,17.80
2019-05-19T07:41:26.374Z,17.76
2019-05-19T07:42:26.342Z,17.80
2019-05-19T07:43:26.391Z,17.86
2019-05-19T07:44:26.314Z,17.95
2019-05-19T07:45:26.314Z,18.00
2019-05-19T07:46:26.306Z,18.07
2019-05-19T07:47:26.331Z,18.13
2019-05-19T07:48:26.270Z,18.19
2019-05-19T07:49:26.257Z,18.18
2019-05-19T07:50:26.247Z,18.26
2019-05-19T07:51:26.235Z,18.23
2019-05-19T07:52:26.245Z,18.28
2019-05-19T07:53:26.217Z,18.40
2019-05-19T07:54:26.226Z,18.38
2019-05-19T07:55:26.202Z,18.55
2019-05-19T07:56:26.198Z,18.58
2019-05-19T07:57:26.207Z,18.73
2019-05-19T07:58:26.186Z,18.70
2019-05-19T07:59:26.170Z,18.80
2019-05-19T08:00:26.159Z,18.84
2019-05-19T08:01:26.174Z,18.89
2019-05-19T08:02:26.170Z,18.92
2019-05-19T08:03:26.110Z,18.88
2019-05-19T08:04:26.086Z,18.92
2019-05-19T08:05:26.126Z,18.90
2019-05-19T08:06:26.067Z,18.92
2019-05-19T08:07:26.063Z,18.93
2019-05-19T08:08:26.055Z,18.92
2019-05-19T08:09:26.034Z,18.96
2019-05-19T08:10:26.034Z,19.07
2019-05-19T08:11:26.028Z,19.08
2019-05-19T08:12:25.999Z,19.15
2019-05-19T08:13:25.992Z,19.33
2019-05-19T08:14:25.977Z,19.36
2019-05-19T08:15:26.045Z,19.58
2019-05-19T08:16:25.970Z,19.62
2019-05-19T08:17:26.149Z,19.67
2019-05-19T08:18:25.938Z,19.69
2019-05-19T08:19:25.925Z,19.86
2019-05-19T08:20:25.943Z,19.92
2019-05-19T08:21:25.895Z,19.99
2019-05-19T08:22:25.902Z,20.11
2019-05-19T08:23:25.878Z,20.10
2019-05-19T08:24:25.867Z,20.19
2019-05-19T08:25:25.854Z,20.18
2019-05-19T08:26:25.846Z,20.28
2019-05-19T08:27:25.858Z,20.13
2019-05-19T08:28:25.834Z,20.24
2019-05-19T08:29:25.811Z,20.28
2019-05-19T08:30:25.827Z,20.28
2019-05-19T08:31:25.790Z,20.28
2019-05-19T08:32:25.786Z,20.25
2019-05-19T08:33:25.811Z,20.43
2019-05-19T08:34:25.798Z,20.40
2019-05-19T08:35:25.748Z,20.50
2019-05-19T08:36:25.771Z,20.59
2019-05-19T08:37:25.722Z,20.66
2019-05-19T08:38:25.715Z,20.80
2019-05-19T08:39:25.724Z,20.81
2019-05-19T08:40:25.710Z,20.95
2019-05-19T08:41:25.674Z,21.05
2019-05-19T08:42:25.682Z,21.12
2019-05-19T08:43:25.674Z,21.12
2019-05-19T08:44:25.650Z,21.27
2019-05-19T08:45:25.635Z,21.27
2019-05-19T08:46:25.653Z,21.29
2019-05-19T08:47:25.606Z,21.33
2019-05-19T08:48:25.602Z,21.27
2019-05-19T08:49:25.689Z,21.35
2019-05-19T08:50:25.575Z,21.33
2019-05-19T08:51:25.586Z,21.30
2019-05-19T08:52:25.557Z,21.37
2019-05-19T08:53:25.546Z,21.35
2019-05-19T08:54:25.582Z,21.39
2019-05-19T08:55:25.522Z,21.24
2019-05-19T08:56:25.549Z,21.24
2019-05-19T08:57:25.609Z,21.21
2019-05-19T08:58:25.494Z,21.27
2019-05-19T08:59:25.478Z,21.35
2019-05-19T09:00:25.498Z,21.29
2019-05-19T09:01:25.523Z,21.27
2019-05-19T09:02:25.446Z,21.22
2019-05-19T09:03:25.442Z,21.27
2019-05-19T09:04:25.446Z,21.40
2019-05-19T09:05:25.414Z,21.48
2019-05-19T09:06:25.411Z,21.61
2019-05-19T09:07:25.411Z,21.61
2019-05-19T09:08:25.390Z,21.75
2019-05-19T09:09:25.378Z,21.75
2019-05-19T09:10:25.360Z,21.80
2019-05-19T09:11:25.347Z,21.80
2019-05-19T09:12:25.373Z,21.82
2019-05-19T09:13:25.357Z,21.82
2019-05-19T09:14:25.326Z,21.77
2019-05-19T09:15:25.302Z,21.89
2019-05-19T09:16:25.387Z,22.06
2019-05-19T09:17:25.278Z,22.08
2019-05-19T09:18:25.276Z,22.14
2019-05-19T09:19:25.274Z,22.11
2019-05-19T09:20:25.323Z,22.10
2019-05-19T09:21:25.271Z,22.17
2019-05-19T09:22:25.246Z,22.13
2019-05-19T09:23:25.250Z,22.23
2019-05-19T09:24:30.391Z,22.23
2019-05-19T09:25:26.198Z,22.18
2019-05-19T09:26:25.186Z,22.23
2019-05-19T09:27:25.174Z,22.22
2019-05-19T09:28:25.170Z,22.23
2019-05-19T09:29:25.153Z,22.22
2019-05-19T09:30:25.143Z,22.32
2019-05-19T09:31:25.146Z,22.41
2019-05-19T09:32:25.163Z,22.44
2019-05-19T09:33:25.115Z,22.25
2019-05-19T09:34:25.097Z,22.33
2019-05-19T09:35:25.094Z,22.33
2019-05-19T09:36:25.071Z,22.47
2019-05-19T09:37:25.074Z,22.51
2019-05-19T09:38:25.052Z,22.65
2019-05-19T09:39:25.056Z,22.63
2019-05-19T09:40:26.807Z,22.80
2019-05-19T09:41:25.014Z,23.05
2019-05-19T09:42:25.060Z,23.20
2019-05-19T09:43:25.006Z,23.40
2019-05-19T09:44:24.990Z,23.34
2019-05-19T09:45:24.986Z,23.56
2019-05-19T09:46:24.976Z,23.51
2019-05-19T09:47:24.954Z,23.63
2019-05-19T09:48:24.944Z,23.58
2019-05-19T09:49:24.944Z,23.54
2019-05-19T09:50:24.966Z,23.55
2019-05-19T09:51:24.933Z,23.56
2019-05-19T09:52:24.891Z,23.51
2019-05-19T09:53:24.884Z,23.51
2019-05-19T09:54:24.919Z,23.51
2019-05-19T09:55:24.884Z,23.40
2019-05-19T09:56:24.846Z,23.36
2019-05-19T09:57:24.852Z,23.27
2019-05-19T09:58:24.864Z,23.41
2019-05-19T09:59:24.818Z,23.54
2019-05-19T10:00:24.808Z,23.54
2019-05-19T10:01:24.794Z,23.71
2019-05-19T10:02:24.791Z,23.76
2019-05-19T10:03:24.789Z,23.80
2019-05-19T10:04:24.763Z,24.03
2019-05-19T10:05:24.754Z,24.20
2019-05-19T10:06:24.756Z,24.33
2019-05-19T10:07:24.728Z,24.54
2019-05-19T10:08:24.729Z,24.45
2019-05-19T10:09:24.720Z,24.40
2019-05-19T10:10:24.707Z,24.40
2019-05-19T10:11:24.701Z,24.38
2019-05-19T10:12:24.674Z,24.29
2019-05-19T10:13:24.704Z,24.21
2019-05-19T10:14:24.713Z,23.98
2019-05-19T10:15:24.643Z,23.91
2019-05-19T10:16:24.632Z,23.92
2019-05-19T10:17:24.623Z,24.05
2019-05-19T10:18:24.618Z,24.23
2019-05-19T10:19:24.611Z,24.17
2019-05-19T10:20:24.604Z,24.13
2019-05-19T10:21:24.604Z,24.35
2019-05-19T10:22:24.564Z,24.32
2019-05-19T10:23:24.560Z,24.42
2019-05-19T10:24:24.547Z,24.39
2019-05-19T10:25:24.620Z,24.48
2019-05-19T10:26:24.532Z,24.55
2019-05-19T10:27:24.515Z,24.48
2019-05-19T10:28:24.504Z,24.48
2019-05-19T10:29:24.483Z,24.54
2019-05-19T10:30:24.480Z,24.77
2019-05-19T10:31:24.479Z,24.78
2019-05-19T10:32:24.454Z,25.03
2019-05-19T10:33:24.452Z,25.01
2019-05-19T10:34:24.436Z,25.11
2019-05-19T10:35:24.426Z,24.99
2019-05-19T10:36:24.456Z,25.04
2019-05-19T10:37:24.440Z,24.95
2019-05-19T10:38:24.392Z,25.03
2019-05-19T10:39:24.385Z,25.06
2019-05-19T10:40:24.367Z,25.11
2019-05-19T10:41:24.367Z,25.06
2019-05-19T10:42:24.348Z,25.10
2019-05-19T10:43:24.347Z,25.11
2019-05-19T10:44:24.327Z,25.14
2019-05-19T10:45:24.320Z,25.21
2019-05-19T10:46:24.307Z,25.31
2019-05-19T10:47:24.288Z,25.50
2019-05-19T10:48:24.275Z,25.63
2019-05-19T10:49:24.267Z,25.84
2019-05-19T10:50:24.285Z,25.84
2019-05-19T10:51:24.259Z,25.96
2019-05-19T10:52:24.236Z,25.99
2019-05-19T10:53:24.227Z,26.10
2019-05-19T10:54:24.227Z,26.10
2019-05-19T10:55:35.375Z,26.19
2019-05-19T10:56:25.187Z,26.22
2019-05-19T10:57:24.247Z,26.23
2019-05-19T10:58:24.182Z,26.21
2019-05-19T10:59:24.172Z,26.21
2019-05-19T11:00:24.167Z,26.21
2019-05-19T11:01:24.140Z,25.99
2019-05-19T11:02:24.131Z,25.88
2019-05-19T11:03:24.156Z,25.65
2019-05-19T11:04:24.115Z,25.41
2019-05-19T11:05:24.100Z,25.21
2019-05-19T11:06:24.100Z,25.14
2019-05-19T11:07:24.075Z,25.13
2019-05-19T11:08:24.092Z,25.06
2019-05-19T11:09:24.052Z,25.11
2019-05-19T11:10:24.044Z,25.43
2019-05-19T11:11:24.047Z,25.50
2019-05-19T11:12:24.033Z,25.80
2019-05-19T11:13:24.051Z,25.90
2019-05-19T11:14:24.004Z,25.98
2019-05-19T11:15:23.985Z,25.81
2019-05-19T11:16:23.999Z,25.77
2019-05-19T11:17:23.968Z,25.87
2019-05-19T11:18:23.968Z,25.83
2019-05-19T11:19:23.943Z,25.77
2019-05-19T11:20:23.948Z,25.90
2019-05-19T11:21:23.923Z,25.90
2019-05-19T11:22:23.920Z,25.96
2019-05-19T11:23:23.936Z,25.96
2019-05-19T11:24:23.896Z,26.15
2019-05-19T11:25:33.564Z,26.31
2019-05-19T11:26:24.924Z,26.37
2019-05-19T11:27:23.856Z,26.31
2019-05-19T11:28:23.888Z,26.41
2019-05-19T11:29:23.836Z,26.22
2019-05-19T11:30:23.904Z,26.09
2019-05-19T11:31:23.815Z,26.09
2019-05-19T11:32:23.804Z,26.13
2019-05-19T11:33:23.792Z,26.16
2019-05-19T11:34:23.795Z,26.15
2019-05-19T11:35:23.774Z,26.22
2019-05-19T11:36:23.768Z,26.15
2019-05-19T11:37:23.778Z,26.00
2019-05-19T11:38:23.792Z,25.96
2019-05-19T11:39:23.739Z,25.88
2019-05-19T11:40:23.720Z,25.80
2019-05-19T11:41:23.721Z,25.62
2019-05-19T11:42:23.696Z,25.38
2019-05-19T11:43:23.758Z,25.07
2019-05-19T11:44:23.676Z,24.81
2019-05-19T11:45:23.676Z,24.60
2019-05-19T11:46:23.655Z,24.45
2019-05-19T11:47:23.647Z,24.40
2019-05-19T11:48:23.639Z,24.39
2019-05-19T11:49:23.676Z,24.42
2019-05-19T11:50:23.631Z,24.48
2019-05-19T11:51:23.603Z,24.69
2019-05-19T11:52:23.591Z,24.74
2019-05-19T11:53:23.604Z,24.78
2019-05-19T11:54:23.571Z,24.76
2019-05-19T11:55:23.559Z,24.66
2019-05-19T11:56:23.551Z,24.73
2019-05-19T11:57:23.564Z,24.76
2019-05-19T11:58:23.523Z,24.66
2019-05-19T11:59:23.543Z,24.50
2019-05-19T12:00:23.512Z,24.45
2019-05-19T12:01:23.509Z,24.38
2019-05-19T12:02:23.480Z,24.32
2019-05-19T12:03:23.468Z,24.32
2019-05-19T12:04:23.455Z,24.24
2019-05-19T12:05:23.471Z,24.20
2019-05-19T12:06:38.101Z,24.20
2019-05-19T12:07:24.487Z,24.16
2019-05-19T12:08:23.408Z,24.13
2019-05-19T12:09:23.399Z,24.05
2019-05-19T12:10:23.444Z,24.06
2019-05-19T12:11:23.427Z,23.95
2019-05-19T12:12:23.376Z,23.96
2019-05-19T12:13:23.362Z,23.76
2019-05-19T12:14:23.352Z,23.81
2019-05-19T12:15:23.347Z,23.76
2019-05-19T12:16:23.351Z,23.78
2019-05-19T12:17:23.326Z,23.77
2019-05-19T12:18:23.295Z,23.84
2019-05-19T12:19:23.392Z,23.87
2019-05-19T12:20:23.279Z,23.93
2019-05-19T12:21:23.282Z,24.10
2019-05-19T12:22:23.280Z,24.32
2019-05-19T12:23:23.371Z,24.69
2019-05-19T12:24:23.235Z,25.06
2019-05-19T12:25:23.271Z,25.31
2019-05-19T12:26:23.883Z,25.29
2019-05-19T12:27:23.199Z,25.33
2019-05-19T12:28:23.212Z,25.22
2019-05-19T12:29:23.182Z,25.22
2019-05-19T12:30:23.197Z,25.23
2019-05-19T12:31:23.159Z,25.11
2019-05-19T12:32:23.172Z,25.10
2019-05-19T12:33:23.147Z,24.80
2019-05-19T12:34:23.123Z,24.80
2019-05-19T12:35:23.116Z,24.68
2019-05-19T12:36:23.110Z,24.63
2019-05-19T12:37:23.095Z,24.51
2019-05-19T12:38:23.111Z,24.33
2019-05-19T12:39:23.071Z,24.29
2019-05-19T12:40:23.066Z,24.21
2019-05-19T12:41:23.059Z,24.17
2019-05-19T12:42:23.035Z,24.14
2019-05-19T12:43:23.039Z,24.03
2019-05-19T12:44:23.015Z,24.10
2019-05-19T12:45:23.035Z,24.01
2019-05-19T12:46:22.997Z,24.02
2019-05-19T12:47:22.985Z,24.05
2019-05-19T12:48:22.972Z,23.93
2019-05-19T12:49:22.971Z,23.98
2019-05-19T12:50:22.974Z,23.96
2019-05-19T12:51:22.955Z,23.99
2019-05-19T12:52:22.923Z,23.96